Oostrozebeke, Belgium
Current Conditions -  °F | °C
As of 7:30 AM on Saturday 20 Dec 2014 (Local Time) from LFQQ Reporting Station
Broken Clouds Broken Clouds  
Wind Chill: 37°   Ceiling: 4700
Heat Index: 43°   Visibility: 6mi
Dew Point: 37°   Wind: 10mph
Humidity: 81%   Direction: 250°WSW
Pressure: 30.24"   Gusts: NA
Location:  50.92°N, 3.34°E
Report Text: LFQQ 200630Z 25009KT 9999 BKN047 06/03 Q1024 NOSIG
Loading
Personal Weather Stations






























Interactive Weather Map New forecast layout! Learn more

10-Day Weather Forecast

Advertisements
Track Severe Weather on mobile